sensor_id;sensor_type;location;lat;lon;timestamp;P1;P2;P0
76383;PMS7003;65204;48.606;7.598;2023-06-14T00:00:11;12.25;12.00;9.00
76383;PMS7003;65204;48.606;7.598;2023-06-14T00:00:42;14.00;12.50;10.75
76383;PMS7003;65204;48.606;7.598;2023-06-14T00:01:14;9.80;9.80;8.20
76383;PMS7003;65204;48.606;7.598;2023-06-14T00:01:44;11.00;9.25;8.00
76383;PMS7003;65204;48.606;7.598;2023-06-14T00:02:18;10.80;10.80;8.00
76383;PMS7003;65204;48.606;7.598;2023-06-14T00:02:48;12.00;12.00;10.00
76383;PMS7003;65204;48.606;7.598;2023-06-14T00:03:19;11.75;11.25;9.25
76383;PMS7003;65204;48.606;7.598;2023-06-14T00:03:52;11.80;10.80;9.80
76383;PMS7003;65204;48.606;7.598;2023-06-14T00:04:22;12.75;11.75;8.75
76383;PMS7003;65204;48.606;7.598;2023-06-14T00:04:55;11.20;11.20;10.00
76383;PMS7003;65204;48.606;7.598;2023-06-14T00:05:25;15.00;11.75;8.25
76383;PMS7003;65204;48.606;7.598;2023-06-14T00:05:56;12.00;12.00;10.00
76383;PMS7003;65204;48.606;7.598;2023-06-14T00:06:26;12.50;11.50;9.00
76383;PMS7003;65204;48.606;7.598;2023-06-14T00:06:58;10.20;10.20;8.40
76383;PMS7003;65204;48.606;7.598;2023-06-14T00:07:36;9.20;8.80;7.80
76383;PMS7003;65204;48.606;7.598;2023-06-14T00:08:08;10.80;9.80;7.60
76383;PMS7003;65204;48.606;7.598;2023-06-14T00:08:39;13.60;10.40;9.20
76383;PMS7003;65204;48.606;7.598;2023-06-14T00:09:13;14.75;12.25;10.00
76383;PMS7003;65204;48.606;7.598;2023-06-14T00:09:43;10.80;9.80;9.20
76383;PMS7003;65204;48.606;7.598;2023-06-14T00:10:14;12.75;10.75;9.00
76383;PMS7003;65204;48.606;7.598;2023-06-14T00:10:44;11.25;10.50;9.25
76383;PMS7003;65204;48.606;7.598;2023-06-14T00:11:15;11.75;11.25;9.75
76383;PMS7003;65204;48.606;7.598;2023-06-14T00:11:45;11.00;8.75;6.75
76383;PMS7003;65204;48.606;7.598;2023-06-14T00:12:15;10.50;10.50;8.25
76383;PMS7003;65204;48.606;7.598;2023-06-14T00:12:46;12.00;9.75;8.00
76383;PMS7003;65204;48.606;7.598;2023-06-14T00:13:16;12.25;11.50;8.50
76383;PMS7003;65204;48.606;7.598;2023-06-14T00:13:46;9.25;9.25;7.25
76383;PMS7003;65204;48.606;7.598;2023-06-14T00:14:17;11.00;9.75;8.00
76383;PMS7003;65204;48.606;7.598;2023-06-14T00:14:47;8.00;8.00;5.50
76383;PMS7003;65204;48.606;7.598;2023-06-14T00:15:17;10.50;10.50;8.25
76383;PMS7003;65204;48.606;7.598;2023-06-14T00:15:48;13.75;12.25;9.00
76383;PMS7003;65204;48.606;7.598;2023-06-14T00:16:18;13.25;11.50;10.50
76383;PMS7003;65204;48.606;7.598;2023-06-14T00:16:49;15.50;11.75;9.75
76383;PMS7003;65204;48.606;7.598;2023-06-14T00:17:19;12.25;11.75;8.75
76383;PMS7003;65204;48.606;7.598;2023-06-14T00:17:50;12.60;11.80;9.20
76383;PMS7003;65204;48.606;7.598;2023-06-14T00:18:21;11.50;11.50;9.00
76383;PMS7003;65204;48.606;7.598;2023-06-14T00:18:54;10.20;10.20;7.80
76383;PMS7003;65204;48.606;7.598;2023-06-14T00:19:24;11.00;11.00;9.25
76383;PMS7003;65204;48.606;7.598;2023-06-14T00:19:58;11.40;11.40;9.60
76383;PMS7003;65204;48.606;7.598;2023-06-14T00:20:29;12.00;10.60;8.80
76383;PMS7003;65204;48.606;7.598;2023-06-14T00:21:02;11.20;10.40;9.00
76383;PMS7003;65204;48.606;7.598;2023-06-14T00:21:33;11.60;11.60;9.40
76383;PMS7003;65204;48.606;7.598;2023-06-14T00:22:05;8.00;8.00;7.00
76383;PMS7003;65204;48.606;7.598;2023-06-14T00:22:35;11.00;11.00;10.75
76383;PMS7003;65204;48.606;7.598;2023-06-14T00:23:07;10.20;10.20;8.00
76383;PMS7003;65204;48.606;7.598;2023-06-14T00:23:37;12.00;10.00;9.00
76383;PMS7003;65204;48.606;7.598;2023-06-14T00:24:08;8.50;6.50;5.00
76383;PMS7003;65204;48.606;7.598;2023-06-14T00:24:38;11.50;11.50;10.50
76383;PMS7003;65204;48.606;7.598;2023-06-14T00:25:08;11.75;10.50;8.75
76383;PMS7003;65204;48.606;7.598;2023-06-14T00:25:39;9.50;9.25;8.00
76383;PMS7003;65204;48.606;7.598;2023-06-14T00:26:09;14.75;11.75;9.50
76383;PMS7003;65204;48.606;7.598;2023-06-14T00:26:40;12.00;10.75;8.25
76383;PMS7003;65204;48.606;7.598;2023-06-14T00:27:10;11.50;11.50;10.00
76383;PMS7003;65204;48.606;7.598;2023-06-14T00:27:41;16.25;12.25;10.00
76383;PMS7003;65204;48.606;7.598;2023-06-14T00:28:11;14.00;11.75;9.50
76383;PMS7003;65204;48.606;7.598;2023-06-14T00:28:41;12.25;10.00;9.00
76383;PMS7003;65204;48.606;7.598;2023-06-14T00:29:12;14.50;12.75;10.00
76383;PMS7003;65204;48.606;7.598;2023-06-14T00:29:42;15.00;12.50;10.00
76383;PMS7003;65204;48.606;7.598;2023-06-14T00:30:12;12.00;11.50;10.00
76383;PMS7003;65204;48.606;7.598;2023-06-14T00:30:43;10.50;10.50;9.50
76383;PMS7003;65204;48.606;7.598;2023-06-14T00:31:16;12.80;12.80;11.20
76383;PMS7003;65204;48.606;7.598;2023-06-14T00:31:46;11.25;11.25;8.75
76383;PMS7003;65204;48.606;7.598;2023-06-14T00:32:18;12.25;11.50;9.75
76383;PMS7003;65204;48.606;7.598;2023-06-14T00:32:49;11.60;10.60;9.20
76383;PMS7003;65204;48.606;7.598;2023-06-14T00:33:21;16.20;14.80;11.80
76383;PMS7003;65204;48.606;7.598;2023-06-14T00:33:51;11.75;10.25;8.00
76383;PMS7003;65204;48.606;7.598;2023-06-14T00:34:22;10.50;9.00;8.25
76383;PMS7003;65204;48.606;7.598;2023-06-14T00:34:52;13.00;11.75;10.00
76383;PMS7003;65204;48.606;7.598;2023-06-14T00:35:22;10.75;10.25;8.75
76383;PMS7003;65204;48.606;7.598;2023-06-14T00:35:53;13.00;12.25;10.25
76383;PMS7003;65204;48.606;7.598;2023-06-14T00:36:23;14.00;11.60;9.60
76383;PMS7003;65204;48.606;7.598;2023-06-14T00:36:54;11.25;11.25;9.75
76383;PMS7003;65204;48.606;7.598;2023-06-14T00:37:25;9.25;9.25;6.25
76383;PMS7003;65204;48.606;7.598;2023-06-14T00:37:55;11.25;11.25;9.50
76383;PMS7003;65204;48.606;7.598;2023-06-14T00:38:25;10.75;9.25;8.00
76383;PMS7003;65204;48.606;7.598;2023-06-14T00:38:56;12.25;12.25;10.00
76383;PMS7003;65204;48.606;7.598;2023-06-14T00:39:26;12.25;11.25;8.00
76383;PMS7003;65204;48.606;7.598;2023-06-14T00:39:56;12.00;11.00;8.75
76383;PMS7003;65204;48.606;7.598;2023-06-14T00:40:27;11.00;10.00;8.25
76383;PMS7003;65204;48.606;7.598;2023-06-14T00:40:57;11.75;10.50;9.00
76383;PMS7003;65204;48.606;7.598;2023-06-14T00:41:27;12.50;12.25;9.00
76383;PMS7003;65204;48.606;7.598;2023-06-14T00:41:58;13.50;13.50;12.25
76383;PMS7003;65204;48.606;7.598;2023-06-14T00:42:29;14.00;14.00;11.00
76383;PMS7003;65204;48.606;7.598;2023-06-14T00:43:00;12.25;10.25;9.00
76383;PMS7003;65204;48.606;7.598;2023-06-14T00:43:30;12.00;11.25;9.25
76383;PMS7003;65204;48.606;7.598;2023-06-14T00:44:00;13.00;12.00;10.00
76383;PMS7003;65204;48.606;7.598;2023-06-14T00:44:31;10.25;10.25;8.50
76383;PMS7003;65204;48.606;7.598;2023-06-14T00:45:01;11.25;11.25;9.75
76383;PMS7003;65204;48.606;7.598;2023-06-14T00:45:32;11.25;11.25;9.00
76383;PMS7003;65204;48.606;7.598;2023-06-14T00:46:05;11.40;10.20;8.00
76383;PMS7003;65204;48.606;7.598;2023-06-14T00:46:36;12.00;11.00;9.50
76383;PMS7003;65204;48.606;7.598;2023-06-14T00:47:06;12.50;11.50;9.50
76383;PMS7003;65204;48.606;7.598;2023-06-14T00:47:37;14.25;14.25;10.25
76383;PMS7003;65204;48.606;7.598;2023-06-14T00:48:08;11.40;10.60;9.00
76383;PMS7003;65204;48.606;7.598;2023-06-14T00:48:40;12.60;11.20;9.00
76383;PMS7003;65204;48.606;7.598;2023-06-14T00:49:12;11.00;10.20;8.40
76383;PMS7003;65204;48.606;7.598;2023-06-14T00:49:45;11.40;10.20;7.60
76383;PMS7003;65204;48.606;7.598;2023-06-14T00:50:17;11.20;10.20;8.60
76383;PMS7003;65204;48.606;7.598;2023-06-14T00:50:50;7.20;6.60;6.40
76383;PMS7003;65204;48.606;7.598;2023-06-14T00:51:22;11.60;11.60;10.20
76383;PMS7003;65204;48.606;7.598;2023-06-14T00:51:53;13.25;12.00;8.50
76383;PMS7003;65204;48.606;7.598;2023-06-14T00:52:23;12.25;11.25;9.25
76383;PMS7003;65204;48.606;7.598;2023-06-14T00:52:56;11.60;11.20;9.20
76383;PMS7003;65204;48.606;7.598;2023-06-14T00:53:28;11.20;11.00;9.60
76383;PMS7003;65204;48.606;7.598;2023-06-14T00:53:59;13.20;10.60;9.20
76383;PMS7003;65204;48.606;7.598;2023-06-14T00:54:30;14.25;13.75;11.50
76383;PMS7003;65204;48.606;7.598;2023-06-14T00:55:00;12.75;11.00;9.25
76383;PMS7003;65204;48.606;7.598;2023-06-14T00:55:31;13.00;13.00;10.25
76383;PMS7003;65204;48.606;7.598;2023-06-14T00:56:02;10.40;8.20;5.20
76383;PMS7003;65204;48.606;7.598;2023-06-14T00:56:35;13.25;13.25;11.25
76383;PMS7003;65204;48.606;7.598;2023-06-14T00:57:06;14.80;12.40;10.00
76383;PMS7003;65204;48.606;7.598;2023-06-14T00:57:38;11.75;11.75;9.50
76383;PMS7003;65204;48.606;7.598;2023-06-14T00:58:10;11.20;11.20;9.40
76383;PMS7003;65204;48.606;7.598;2023-06-14T00:58:41;10.60;10.60;7.40
76383;PMS7003;65204;48.606;7.598;2023-06-14T00:59:11;12.50;11.50;10.00
76383;PMS7003;65204;48.606;7.598;2023-06-14T01:00:14;13.40;11.80;10.00
76383;PMS7003;65204;48.606;7.598;2023-06-14T01:00:45;12.00;11.50;9.50
76383;PMS7003;65204;48.606;7.598;2023-06-14T01:01:15;15.25;11.25;9.50
76383;PMS7003;65204;48.606;7.598;2023-06-14T01:01:46;15.00;13.25;10.25
76383;PMS7003;65204;48.606;7.598;2023-06-14T01:02:16;12.75;12.75;10.00
76383;PMS7003;65204;48.606;7.598;2023-06-14T01:02:48;12.40;12.40;9.20
76383;PMS7003;65204;48.606;7.598;2023-06-14T01:03:19;15.60;12.60;10.60
76383;PMS7003;65204;48.606;7.598;2023-06-14T01:03:51;13.80;13.80;11.20
76383;PMS7003;65204;48.606;7.598;2023-06-14T01:04:22;14.50;13.25;12.00
76383;PMS7003;65204;48.606;7.598;2023-06-14T01:04:52;14.25;13.25;10.50
76383;PMS7003;65204;48.606;7.598;2023-06-14T01:05:23;16.20;16.00;13.40
76383;PMS7003;65204;48.606;7.598;2023-06-14T01:06:05;19.00;16.80;13.40
76383;PMS7003;65204;48.606;7.598;2023-06-14T01:07:02;18.80;17.40;11.40
76383;PMS7003;65204;48.606;7.598;2023-06-14T01:08:45;22.60;22.60;17.00
76383;PMS7003;65204;48.606;7.598;2023-06-14T01:09:28;18.20;18.20;15.00
76383;PMS7003;65204;48.606;7.598;2023-06-14T01:10:47;15.40;15.40;13.80
76383;PMS7003;65204;48.606;7.598;2023-06-14T01:11:24;14.20;14.20;12.20
76383;PMS7003;65204;48.606;7.598;2023-06-14T01:12:07;14.20;13.60;10.00
76383;PMS7003;65204;48.606;7.598;2023-06-14T01:13:43;13.80;12.80;10.20
76383;PMS7003;65204;48.606;7.598;2023-06-14T01:14:16;12.60;11.60;10.20
76383;PMS7003;65204;48.606;7.598;2023-06-14T01:14:48;17.40;14.40;12.20
76383;PMS7003;65204;48.606;7.598;2023-06-14T01:15:19;14.25;13.25;11.25
76383;PMS7003;65204;48.606;7.598;2023-06-14T01:15:51;11.80;11.80;8.80
76383;PMS7003;65204;48.606;7.598;2023-06-14T01:16:22;13.20;13.20;10.20
76383;PMS7003;65204;48.606;7.598;2023-06-14T01:16:53;13.00;13.00;12.00
76383;PMS7003;65204;48.606;7.598;2023-06-14T01:17:25;10.80;9.80;8.20
76383;PMS7003;65204;48.606;7.598;2023-06-14T01:17:57;14.80;14.40;11.00
76383;PMS7003;65204;48.606;7.598;2023-06-14T01:18:32;15.60;13.20;9.60
76383;PMS7003;65204;48.606;7.598;2023-06-14T01:19:05;12.40;12.00;10.60
76383;PMS7003;65204;48.606;7.598;2023-06-14T01:19:36;12.40;12.40;10.20
76383;PMS7003;65204;48.606;7.598;2023-06-14T01:20:07;12.75;12.75;10.25
76383;PMS7003;65204;48.606;7.598;2023-06-14T01:20:40;14.00;12.00;10.00
76383;PMS7003;65204;48.606;7.598;2023-06-14T01:21:19;15.00;13.75;11.25
76383;PMS7003;65204;48.606;7.598;2023-06-14T01:21:51;11.60;11.20;7.80
76383;PMS7003;65204;48.606;7.598;2023-06-14T01:22:24;14.00;14.00;11.20
76383;PMS7003;65204;48.606;7.598;2023-06-14T01:22:56;10.80;10.80;8.80
76383;PMS7003;65204;48.606;7.598;2023-06-14T01:23:26;16.75;13.50;10.25
76383;PMS7003;65204;48.606;7.598;2023-06-14T01:24:02;12.00;12.00;9.60
76383;PMS7003;65204;48.606;7.598;2023-06-14T01:24:33;13.20;12.20;10.40
76383;PMS7003;65204;48.606;7.598;2023-06-14T01:25:04;11.60;11.60;10.40
76383;PMS7003;65204;48.606;7.598;2023-06-14T01:25:35;13.60;11.80;10.00
76383;PMS7003;65204;48.606;7.598;2023-06-14T01:26:07;12.80;11.80;9.80
76383;PMS7003;65204;48.606;7.598;2023-06-14T01:26:37;12.00;10.25;8.75
76383;PMS7003;65204;48.606;7.598;2023-06-14T01:27:09;10.20;10.20;9.20
76383;PMS7003;65204;48.606;7.598;2023-06-14T01:27:39;11.50;11.50;8.75
76383;PMS7003;65204;48.606;7.598;2023-06-14T01:28:10;13.75;12.50;10.00
76383;PMS7003;65204;48.606;7.598;2023-06-14T01:28:42;13.20;12.20;9.00
76383;PMS7003;65204;48.606;7.598;2023-06-14T01:29:18;15.00;13.60;11.00
76383;PMS7003;65204;48.606;7.598;2023-06-14T01:29:50;14.50;13.25;9.25
76383;PMS7003;65204;48.606;7.598;2023-06-14T01:30:26;14.80;14.00;11.40
76383;PMS7003;65204;48.606;7.598;2023-06-14T01:30:58;17.00;13.60;11.00
76383;PMS7003;65204;48.606;7.598;2023-06-14T01:31:35;17.60;15.80;12.20
76383;PMS7003;65204;48.606;7.598;2023-06-14T01:32:11;18.20;17.00;12.00
76383;PMS7003;65204;48.606;7.598;2023-06-14T01:32:42;12.25;10.75;8.50
76383;PMS7003;65204;48.606;7.598;2023-06-14T01:33:17;11.00;10.60;8.20
76383;PMS7003;65204;48.606;7.598;2023-06-14T01:33:50;15.80;15.20;12.80
76383;PMS7003;65204;48.606;7.598;2023-06-14T01:34:21;14.00;14.00;11.80
76383;PMS7003;65204;48.606;7.598;2023-06-14T01:34:52;14.50;13.25;11.50
76383;PMS7003;65204;48.606;7.598;2023-06-14T01:35:22;13.00;11.25;7.50
76383;PMS7003;65204;48.606;7.598;2023-06-14T01:35:53;16.25;15.25;10.50
76383;PMS7003;65204;48.606;7.598;2023-06-14T01:36:26;17.40;17.40;11.20
76383;PMS7003;65204;48.606;7.598;2023-06-14T01:36:58;21.40;18.60;13.80
76383;PMS7003;65204;48.606;7.598;2023-06-14T01:37:31;21.80;20.80;15.60
76383;PMS7003;65204;48.606;7.598;2023-06-14T01:38:01;27.75;23.75;15.50
76383;PMS7003;65204;48.606;7.598;2023-06-14T01:38:33;26.00;24.40;17.40
76383;PMS7003;65204;48.606;7.598;2023-06-14T01:39:03;30.50;26.75;20.75
76383;PMS7003;65204;48.606;7.598;2023-06-14T01:39:35;30.60;27.20;20.00
76383;PMS7003;65204;48.606;7.598;2023-06-14T01:40:06;36.25;31.25;20.75
76383;PMS7003;65204;48.606;7.598;2023-06-14T01:40:40;37.00;31.40;22.20
76383;PMS7003;65204;48.606;7.598;2023-06-14T01:41:14;30.80;29.20;21.00
76383;PMS7003;65204;48.606;7.598;2023-06-14T01:41:45;37.40;33.40;23.00
76383;PMS7003;65204;48.606;7.598;2023-06-14T01:42:17;39.40;32.80;23.20
76383;PMS7003;65204;48.606;7.598;2023-06-14T01:42:49;40.50;34.00;22.25
76383;PMS7003;65204;48.606;7.598;2023-06-14T01:43:20;40.40;34.60;24.00
76383;PMS7003;65204;48.606;7.598;2023-06-14T01:43:51;40.25;33.75;24.25
76383;PMS7003;65204;48.606;7.598;2023-06-14T01:44:23;49.00;37.25;24.25
76383;PMS7003;65204;48.606;7.598;2023-06-14T01:44:54;42.20;37.00;24.00
76383;PMS7003;65204;48.606;7.598;2023-06-14T01:45:26;46.00;38.50;26.00
76383;PMS7003;65204;48.606;7.598;2023-06-14T01:45:58;45.80;36.20;25.80
76383;PMS7003;65204;48.606;7.598;2023-06-14T01:46:30;41.60;34.40;24.00
76383;PMS7003;65204;48.606;7.598;2023-06-14T01:47:00;35.75;31.50;21.75
76383;PMS7003;65204;48.606;7.598;2023-06-14T01:47:31;28.25;26.00;19.50
76383;PMS7003;65204;48.606;7.598;2023-06-14T01:48:02;24.40;23.60;18.40
76383;PMS7003;65204;48.606;7.598;2023-06-14T01:48:32;27.20;24.60;18.00
76383;PMS7003;65204;48.606;7.598;2023-06-14T01:49:03;22.25;20.25;15.25
76383;PMS7003;65204;48.606;7.598;2023-06-14T01:49:34;24.00;20.50;14.25
76383;PMS7003;65204;48.606;7.598;2023-06-14T01:50:05;22.80;21.00;16.20
76383;PMS7003;65204;48.606;7.598;2023-06-14T01:50:36;21.00;20.50;15.75
76383;PMS7003;65204;48.606;7.598;2023-06-14T01:51:06;22.50;22.50;17.00
76383;PMS7003;65204;48.606;7.598;2023-06-14T01:51:36;20.25;20.25;15.00
76383;PMS7003;65204;48.606;7.598;2023-06-14T01:52:07;17.00;14.75;12.00
76383;PMS7003;65204;48.606;7.598;2023-06-14T01:52:39;13.80;13.80;10.80
76383;PMS7003;65204;48.606;7.598;2023-06-14T01:53:10;19.25;17.50;13.00
76383;PMS7003;65204;48.606;7.598;2023-06-14T01:53:40;16.00;14.00;11.50
76383;PMS7003;65204;48.606;7.598;2023-06-14T01:54:10;16.50;14.00;10.75
76383;PMS7003;65204;48.606;7.598;2023-06-14T01:54:41;15.75;15.25;12.50
76383;PMS7003;65204;48.606;7.598;2023-06-14T01:55:11;16.00;16.00;13.00
76383;PMS7003;65204;48.606;7.598;2023-06-14T01:55:42;15.75;14.50;11.50
76383;PMS7003;65204;48.606;7.598;2023-06-14T01:56:13;14.20;14.20;11.40
76383;PMS7003;65204;48.606;7.598;2023-06-14T01:56:44;13.00;13.00;9.75
76383;PMS7003;65204;48.606;7.598;2023-06-14T01:57:14;19.00;16.00;12.50
76383;PMS7003;65204;48.606;7.598;2023-06-14T01:57:45;18.75;13.00;11.00
76383;PMS7003;65204;48.606;7.598;2023-06-14T01:58:15;13.00;13.00;10.25
76383;PMS7003;65204;48.606;7.598;2023-06-14T01:58:49;15.60;15.20;11.20
76383;PMS7003;65204;48.606;7.598;2023-06-14T01:59:19;13.50;13.50;11.50
76383;PMS7003;65204;48.606;7.598;2023-06-14T01:59:50;15.75;15.25;12.00
76383;PMS7003;65204;48.606;7.598;2023-06-14T02:00:20;14.50;14.50;10.50
76383;PMS7003;65204;48.606;7.598;2023-06-14T02:00:51;13.25;13.25;10.25
76383;PMS7003;65204;48.606;7.598;2023-06-14T02:01:25;15.60;14.20;11.80
76383;PMS7003;65204;48.606;7.598;2023-06-14T02:01:56;11.40;9.00;7.00
76383;PMS7003;65204;48.606;7.598;2023-06-14T02:02:27;20.00;17.00;11.50
76383;PMS7003;65204;48.606;7.598;2023-06-14T02:02:57;16.00;13.75;10.50
76383;PMS7003;65204;48.606;7.598;2023-06-14T02:03:27;17.25;15.75;11.75
76383;PMS7003;65204;48.606;7.598;2023-06-14T02:03:57;15.00;14.75;11.75
76383;PMS7003;65204;48.606;7.598;2023-06-14T02:04:28;19.25;14.00;10.25
76383;PMS7003;65204;48.606;7.598;2023-06-14T02:04:58;17.25;13.50;11.50
76383;PMS7003;65204;48.606;7.598;2023-06-14T02:05:28;16.25;15.25;12.00
76383;PMS7003;65204;48.606;7.598;2023-06-14T02:06:00;16.60;12.80;10.60
76383;PMS7003;65204;48.606;7.598;2023-06-14T02:06:30;19.75;16.50;13.75
76383;PMS7003;65204;48.606;7.598;2023-06-14T02:07:01;16.25;15.00;12.00
76383;PMS7003;65204;48.606;7.598;2023-06-14T02:07:31;18.00;16.00;12.50
76383;PMS7003;65204;48.606;7.598;2023-06-14T02:08:02;20.25;18.50;14.25
76383;PMS7003;65204;48.606;7.598;2023-06-14T02:08:32;20.25;20.25;15.25
76383;PMS7003;65204;48.606;7.598;2023-06-14T02:09:02;21.00;18.25;13.75
76383;PMS7003;65204;48.606;7.598;2023-06-14T02:09:33;25.75;19.75;15.50
76383;PMS7003;65204;48.606;7.598;2023-06-14T02:10:05;23.40;21.20;16.40
76383;PMS7003;65204;48.606;7.598;2023-06-14T02:10:35;22.00;21.00;16.50
76383;PMS7003;65204;48.606;7.598;2023-06-14T02:11:05;19.50;19.50;16.00
76383;PMS7003;65204;48.606;7.598;2023-06-14T02:11:36;20.50;19.00;14.00
76383;PMS7003;65204;48.606;7.598;2023-06-14T02:12:06;20.00;20.00;14.75
76383;PMS7003;65204;48.606;7.598;2023-06-14T02:12:37;24.60;23.40;17.40
76383;PMS7003;65204;48.606;7.598;2023-06-14T02:13:07;22.75;20.00;15.25
76383;PMS7003;65204;48.606;7.598;2023-06-14T02:13:38;24.25;22.50;15.75
76383;PMS7003;65204;48.606;7.598;2023-06-14T02:14:08;22.00;21.75;14.25
76383;PMS7003;65204;48.606;7.598;2023-06-14T02:14:41;21.60;18.60;14.20
76383;PMS7003;65204;48.606;7.598;2023-06-14T02:15:12;22.00;20.50;15.75
76383;PMS7003;65204;48.606;7.598;2023-06-14T02:15:46;19.40;17.40;14.20
76383;PMS7003;65204;48.606;7.598;2023-06-14T02:16:21;21.40;19.20;14.20
76383;PMS7003;65204;48.606;7.598;2023-06-14T02:16:52;20.80;18.80;13.80
76383;PMS7003;65204;48.606;7.598;2023-06-14T02:17:23;22.80;18.80;12.60
76383;PMS7003;65204;48.606;7.598;2023-06-14T02:17:53;17.75;17.75;14.75
76383;PMS7003;65204;48.606;7.598;2023-06-14T02:18:24;23.25;16.00;12.50
76383;PMS7003;65204;48.606;7.598;2023-06-14T02:18:54;15.25;14.75;10.25
76383;PMS7003;65204;48.606;7.598;2023-06-14T02:19:25;18.20;16.00;14.00
76383;PMS7003;65204;48.606;7.598;2023-06-14T02:19:56;19.40;16.40;12.40
76383;PMS7003;65204;48.606;7.598;2023-06-14T02:20:27;15.75;15.75;13.00
76383;PMS7003;65204;48.606;7.598;2023-06-14T02:20:58;14.50;13.00;10.50
76383;PMS7003;65204;48.606;7.598;2023-06-14T02:21:28;17.75;16.75;12.75
76383;PMS7003;65204;48.606;7.598;2023-06-14T02:21:58;19.75;19.00;14.25
76383;PMS7003;65204;48.606;7.598;2023-06-14T02:22:29;15.25;13.75;11.50
76383;PMS7003;65204;48.606;7.598;2023-06-14T02:22:59;18.50;17.50;12.00
76383;PMS7003;65204;48.606;7.598;2023-06-14T02:23:30;14.75;14.75;12.25
76383;PMS7003;65204;48.606;7.598;2023-06-14T02:24:02;18.60;16.40;12.40
76383;PMS7003;65204;48.606;7.598;2023-06-14T02:24:32;16.25;14.25;10.25
76383;PMS7003;65204;48.606;7.598;2023-06-14T02:25:02;11.50;11.50;9.75
76383;PMS7003;65204;48.606;7.598;2023-06-14T02:25:33;13.00;13.00;10.50
76383;PMS7003;65204;48.606;7.598;2023-06-14T02:26:04;14.25;13.75;12.00
76383;PMS7003;65204;48.606;7.598;2023-06-14T02:26:34;13.25;12.50;9.00
76383;PMS7003;65204;48.606;7.598;2023-06-14T02:27:04;16.00;15.00;12.75
76383;PMS7003;65204;48.606;7.598;2023-06-14T02:27:36;16.20;14.00;11.80
76383;PMS7003;65204;48.606;7.598;2023-06-14T02:28:06;17.50;15.50;12.25
76383;PMS7003;65204;48.606;7.598;2023-06-14T02:28:37;13.75;12.75;11.25
76383;PMS7003;65204;48.606;7.598;2023-06-14T02:29:07;14.00;13.75;10.75
76383;PMS7003;65204;48.606;7.598;2023-06-14T02:29:42;19.60;17.60;13.60
76383;PMS7003;65204;48.606;7.598;2023-06-14T02:30:13;20.25;18.75;13.50
76383;PMS7003;65204;48.606;7.598;2023-06-14T02:30:43;13.00;12.50;10.50
76383;PMS7003;65204;48.606;7.598;2023-06-14T02:31:13;12.50;12.50;10.50
76383;PMS7003;65204;48.606;7.598;2023-06-14T02:31:44;17.00;15.25;12.50
76383;PMS7003;65204;48.606;7.598;2023-06-14T02:32:16;18.80;18.40;13.20
76383;PMS7003;65204;48.606;7.598;2023-06-14T02:32:47;14.25;13.25;10.75
76383;PMS7003;65204;48.606;7.598;2023-06-14T02:33:18;15.40;15.00;12.60
76383;PMS7003;65204;48.606;7.598;2023-06-14T02:33:48;15.50;15.50;12.25
76383;PMS7003;65204;48.606;7.598;2023-06-14T02:34:19;15.00;13.50;9.75
76383;PMS7003;65204;48.606;7.598;2023-06-14T02:34:50;11.80;11.80;8.80
76383;PMS7003;65204;48.606;7.598;2023-06-14T02:35:20;12.00;12.00;10.00
76383;PMS7003;65204;48.606;7.598;2023-06-14T02:35:52;16.80;13.20;11.20
76383;PMS7003;65204;48.606;7.598;2023-06-14T02:36:22;7.50;7.50;7.25
76383;PMS7003;65204;48.606;7.598;2023-06-14T02:36:53;16.00;14.25;10.75
76383;PMS7003;65204;48.606;7.598;2023-06-14T02:37:23;17.00;15.50;11.25
76383;PMS7003;65204;48.606;7.598;2023-06-14T02:37:54;11.75;11.75;10.00
76383;PMS7003;65204;48.606;7.598;2023-06-14T02:38:24;12.25;12.25;10.25
76383;PMS7003;65204;48.606;7.598;2023-06-14T02:38:55;13.00;13.00;10.50
76383;PMS7003;65204;48.606;7.598;2023-06-14T02:39:27;12.20;12.20;10.40
76383;PMS7003;65204;48.606;7.598;2023-06-14T02:39:58;14.50;13.25;10.50
76383;PMS7003;65204;48.606;7.598;2023-06-14T02:40:28;17.25;16.25;11.75
76383;PMS7003;65204;48.606;7.598;2023-06-14T02:40:59;11.75;11.75;9.25
76383;PMS7003;65204;48.606;7.598;2023-06-14T02:41:31;16.60;15.40;12.40
76383;PMS7003;65204;48.606;7.598;2023-06-14T02:42:02;13.25;13.25;10.50
76383;PMS7003;65204;48.606;7.598;2023-06-14T02:42:32;13.50;13.00;10.75
76383;PMS7003;65204;48.606;7.598;2023-06-14T02:43:02;12.25;12.25;10.25
76383;PMS7003;65204;48.606;7.598;2023-06-14T02:43:33;10.75;10.25;9.00
76383;PMS7003;65204;48.606;7.598;2023-06-14T02:44:03;8.00;8.00;6.00
76383;PMS7003;65204;48.606;7.598;2023-06-14T02:44:34;17.00;13.25;10.25
76383;PMS7003;65204;48.606;7.598;2023-06-14T02:45:05;13.50;12.25;10.75
76383;PMS7003;65204;48.606;7.598;2023-06-14T02:45:36;13.00;13.00;10.60
76383;PMS7003;65204;48.606;7.598;2023-06-14T02:46:06;12.75;12.75;11.00
76383;PMS7003;65204;48.606;7.598;2023-06-14T02:46:37;14.50;14.50;11.25
76383;PMS7003;65204;48.606;7.598;2023-06-14T02:47:07;13.50;13.50;11.50
76383;PMS7003;65204;48.606;7.598;2023-06-14T02:47:37;14.25;13.25;10.25
76383;PMS7003;65204;48.606;7.598;2023-06-14T02:48:08;12.75;10.25;7.50
76383;PMS7003;65204;48.606;7.598;2023-06-14T02:48:38;12.00;10.25;9.25
76383;PMS7003;65204;48.606;7.598;2023-06-14T02:49:08;14.00;13.00;11.00
76383;PMS7003;65204;48.606;7.598;2023-06-14T02:49:39;14.00;14.00;11.00
76383;PMS7003;65204;48.606;7.598;2023-06-14T02:50:09;13.50;12.75;10.75
76383;PMS7003;65204;48.606;7.598;2023-06-14T02:50:40;11.75;11.75;10.25
76383;PMS7003;65204;48.606;7.598;2023-06-14T02:51:10;16.25;15.25;12.50
76383;PMS7003;65204;48.606;7.598;2023-06-14T02:51:40;17.75;16.25;12.00
76383;PMS7003;65204;48.606;7.598;2023-06-14T02:52:11;12.25;11.75;9.50
76383;PMS7003;65204;48.606;7.598;2023-06-14T02:52:41;13.75;13.75;11.75
76383;PMS7003;65204;48.606;7.598;2023-06-14T02:53:14;11.00;11.00;9.40
76383;PMS7003;65204;48.606;7.598;2023-06-14T02:53:45;16.00;15.80;11.40
76383;PMS7003;65204;48.606;7.598;2023-06-14T02:54:16;14.50;13.50;11.75
76383;PMS7003;65204;48.606;7.598;2023-06-14T02:54:46;13.50;13.50;11.25
76383;PMS7003;65204;48.606;7.598;2023-06-14T02:55:17;15.50;14.25;11.00
76383;PMS7003;65204;48.606;7.598;2023-06-14T02:55:47;15.25;13.50;11.50
76383;PMS7003;65204;48.606;7.598;2023-06-14T02:56:18;15.25;12.50;11.00
76383;PMS7003;65204;48.606;7.598;2023-06-14T02:56:49;14.00;13.00;10.00
76383;PMS7003;65204;48.606;7.598;2023-06-14T02:57:21;13.60;13.20;10.80
76383;PMS7003;65204;48.606;7.598;2023-06-14T02:57:52;15.20;14.20;11.40
76383;PMS7003;65204;48.606;7.598;2023-06-14T02:58:23;12.40;10.80;9.40
76383;PMS7003;65204;48.606;7.598;2023-06-14T02:58:54;15.40;15.00;11.00
76383;PMS7003;65204;48.606;7.598;2023-06-14T02:59:25;14.50;12.25;10.50
76383;PMS7003;65204;48.606;7.598;2023-06-14T02:59:56;10.60;10.60;8.00
76383;PMS7003;65204;48.606;7.598;2023-06-14T03:00:26;15.50;14.25;11.00